Time;durP1;ratioP1;P1;durP2;ratioP2;P2;SDS_P1;SDS_P2;PMS_P1;PMS_P2;Temp;Humidity;BMP_temperature;BMP_pressure;BME280_temperature;BME280_humidity;BME280_pressure;Samples;Min_cycle;Max_cycle;Signal;HPM_P1;HPM_P2
2022/06/06 00:02:24;;;;;;;;;;;23.00;77.90;;;;;;5053223;28;19954;-64
2022/06/06 00:04:49;;;;;;;;;;;23.10;77.80;;;;;;5052090;28;19909;-64
2022/06/06 00:07:15;;;;;;;;;;;23.20;76.70;;;;;;5053397;28;20202;-63
2022/06/06 00:09:40;;;;;;;;;;;23.40;76.00;;;;;;5053855;28;19962;-63
2022/06/06 00:12:06;;;;;;;;;;;23.40;75.60;;;;;;5051888;28;19909;-64
2022/06/06 00:14:32;;;;;;;;;;;23.40;76.00;;;;;;5053314;28;19912;-66
2022/06/06 00:16:58;;;;;;;;;;;23.30;77.00;;;;;;5053621;28;19909;-64
2022/06/06 00:19:23;;;;;;;;;;;23.20;77.70;;;;;;5056567;28;19931;-64
2022/06/06 00:21:49;;;;;;;;;;;22.60;79.20;;;;;;5057208;28;19953;-65
2022/06/06 00:24:15;;;;;;;;;;;22.40;80.80;;;;;;5057020;28;19913;-63
2022/06/06 00:26:42;;;;;;;;;;;22.80;79.70;;;;;;5056957;28;19920;-66
2022/06/06 00:29:08;;;;;;;;;;;22.80;79.50;;;;;;5057103;28;19962;-65
2022/06/06 00:37:03;;;;;;;;;;;23.30;78.20;;;;;;5057047;28;19962;-64
2022/06/06 00:39:29;;;;;;;;;;;23.40;77.40;;;;;;5056972;28;19908;-64
2022/06/06 00:41:56;;;;;;;;;;;23.30;77.40;;;;;;5056643;28;20376;-64
2022/06/06 00:44:28;;;;;;;;;;;23.20;78.30;;;;;;5056930;28;20273;-64
2022/06/06 00:47:03;;;;;;;;;;;23.20;78.20;;;;;;5056611;28;19960;-63
2022/06/06 00:49:33;;;;;;;;;;;23.20;77.90;;;;;;5056611;28;19962;-65
2022/06/06 00:51:59;;;;;;;;;;;23.40;73.90;;;;;;5056627;28;19916;-63
2022/06/06 00:54:25;;;;;;;;;;;23.30;72.90;;;;;;5055410;28;19913;-65
2022/06/06 00:56:54;;;;;;;;;;;22.90;72.60;;;;;;5056660;28;19909;-63
2022/06/06 00:59:23;;;;;;;;;;;22.90;72.30;;;;;;5056457;28;19988;-65
2022/06/06 01:01:51;;;;;;;;;;;22.40;73.60;;;;;;5056136;28;19912;-63
2022/06/06 01:04:19;;;;;;;;;;;22.30;73.30;;;;;;5057022;28;19908;-65
2022/06/06 01:06:45;;;;;;;;;;;22.30;73.70;;;;;;5056855;28;19974;-64
2022/06/06 01:09:11;;;;;;;;;;;22.20;73.90;;;;;;5056785;28;19955;-65
2022/06/06 01:11:39;;;;;;;;;;;22.10;73.50;;;;;;5056982;28;19908;-64
2022/06/06 01:14:06;;;;;;;;;;;22.10;72.70;;;;;;5056130;28;20482;-64
2022/06/06 01:16:32;;;;;;;;;;;22.10;72.90;;;;;;5056224;28;19952;-65
2022/06/06 01:19:00;;;;;;;;;;;22.20;73.40;;;;;;5056117;28;20009;-64
2022/06/06 01:21:44;;;;;;;;;;;22.20;73.40;;;;;;5056057;28;19909;-65
2022/06/06 01:24:10;;;;;;;;;;;22.30;72.90;;;;;;5055910;28;20273;-65
2022/06/06 01:26:53;;;;;;;;;;;22.40;72.40;;;;;;5055877;28;19917;-64
2022/06/06 01:29:22;;;;;;;;;;;22.50;70.50;;;;;;5055997;28;19916;-65
2022/06/06 01:31:50;;;;;;;;;;;22.60;70.00;;;;;;5055735;28;19916;-63
2022/06/06 01:34:24;;;;;;;;;;;22.70;69.10;;;;;;5055903;28;20014;-64
2022/06/06 01:36:51;;;;;;;;;;;22.70;69.40;;;;;;5055579;28;20280;-64
2022/06/06 01:39:18;;;;;;;;;;;22.70;71.40;;;;;;5055689;28;19940;-64
2022/06/06 01:41:49;;;;;;;;;;;22.60;73.20;;;;;;5055654;28;19921;-64
2022/06/06 01:44:34;;;;;;;;;;;22.60;73.40;;;;;;5055698;28;19913;-64
2022/06/06 01:47:01;;;;;;;;;;;22.80;73.10;;;;;;5055569;28;19924;-64
2022/06/06 01:49:27;;;;;;;;;;;22.90;73.30;;;;;;5055240;28;20323;-67
2022/06/06 01:52:00;;;;;;;;;;;22.80;72.30;;;;;;5055575;28;19955;-65
2022/06/06 01:54:26;;;;;;;;;;;22.70;72.60;;;;;;5055414;28;20284;-64
2022/06/06 01:56:52;;;;;;;;;;;22.60;73.50;;;;;;5055866;28;19912;-64
2022/06/06 01:59:18;;;;;;;;;;;22.50;72.90;;;;;;5055311;28;20380;-65
2022/06/06 02:01:43;;;;;;;;;;;22.40;72.50;;;;;;5055270;28;19909;-65
2022/06/06 02:04:10;;;;;;;;;;;22.30;72.30;;;;;;5053834;28;19908;-63
2022/06/06 02:06:38;;;;;;;;;;;22.40;71.20;;;;;;5055248;28;19978;-65
2022/06/06 02:09:03;;;;;;;;;;;22.40;70.60;;;;;;5055485;28;19916;-65
2022/06/06 02:11:29;;;;;;;;;;;22.50;70.70;;;;;;5055346;28;19909;-65
2022/06/06 02:13:54;;;;;;;;;;;22.50;70.20;;;;;;5055133;28;19916;-64
2022/06/06 02:16:20;;;;;;;;;;;22.50;70.10;;;;;;5055319;28;19909;-63
2022/06/06 02:18:46;;;;;;;;;;;22.50;70.20;;;;;;5055006;28;20396;-63
2022/06/06 02:21:11;;;;;;;;;;;22.50;70.00;;;;;;5055137;28;19912;-63
2022/06/06 02:23:37;;;;;;;;;;;22.60;69.30;;;;;;5055783;28;19916;-63
2022/06/06 02:26:02;;;;;;;;;;;22.70;68.90;;;;;;5060427;28;19917;-64
2022/06/06 02:28:28;;;;;;;;;;;22.90;67.80;;;;;;5071919;28;19909;-64
2022/06/06 02:30:54;;;;;;;;;;;22.80;67.60;;;;;;5074756;28;19913;-63
2022/06/06 02:33:19;;;;;;;;;;;22.90;67.10;;;;;;5074168;28;19970;-63
2022/06/06 02:35:45;;;;;;;;;;;23.00;67.70;;;;;;5073487;28;19909;-63
2022/06/06 02:38:12;;;;;;;;;;;23.00;67.10;;;;;;5054820;28;19932;-63
2022/06/06 02:40:38;;;;;;;;;;;23.10;64.80;;;;;;5054573;28;19920;-65
2022/06/06 02:43:03;;;;;;;;;;;23.10;64.40;;;;;;5055234;28;19916;-65
2022/06/06 02:45:29;;;;;;;;;;;23.20;63.60;;;;;;5054521;28;20012;-64
2022/06/06 02:47:55;;;;;;;;;;;23.20;63.30;;;;;;5054544;28;20288;-64
2022/06/06 02:50:23;;;;;;;;;;;23.20;62.60;;;;;;5054403;28;19915;-64
2022/06/06 02:52:48;;;;;;;;;;;23.20;63.40;;;;;;5054564;28;19909;-65
2022/06/06 02:55:15;;;;;;;;;;;23.00;63.30;;;;;;5054647;28;19908;-69
2022/06/06 02:57:42;;;;;;;;;;;22.70;66.30;;;;;;5054628;28;19976;-64
2022/06/06 03:00:09;;;;;;;;;;;22.60;67.50;;;;;;5054490;28;20353;-65
2022/06/06 03:02:35;;;;;;;;;;;22.70;67.90;;;;;;5053988;28;19909;-63
2022/06/06 03:05:01;;;;;;;;;;;22.70;68.10;;;;;;5054167;28;19978;-65
2022/06/06 03:07:36;;;;;;;;;;;22.70;68.30;;;;;;5054499;28;19913;-65
2022/06/06 03:10:02;;;;;;;;;;;22.70;68.50;;;;;;5054102;28;20357;-65
2022/06/06 03:12:46;;;;;;;;;;;22.60;69.10;;;;;;5054173;28;19960;-63
2022/06/06 03:15:12;;;;;;;;;;;22.40;70.20;;;;;;5053986;28;20372;-63
2022/06/06 03:20:54;;;;;;;;;;;22.50;69.90;;;;;;5053954;28;19915;-64
2022/06/06 03:23:20;;;;;;;;;;;22.10;71.20;;;;;;5054021;28;19909;-63
2022/06/06 03:25:46;;;;;;;;;;;22.20;67.40;;;;;;5053950;28;19921;-65
2022/06/06 03:28:15;;;;;;;;;;;22.40;66.50;;;;;;5053887;28;20265;-65
2022/06/06 03:30:48;;;;;;;;;;;22.70;61.90;;;;;;5053898;28;19915;-65
2022/06/06 03:33:17;;;;;;;;;;;22.90;59.70;;;;;;5053754;28;19915;-64
2022/06/06 03:35:49;;;;;;;;;;;23.00;58.30;;;;;;5053898;28;20368;-63
2022/06/06 03:38:24;;;;;;;;;;;23.00;57.40;;;;;;5053493;28;19908;-65
2022/06/06 03:41:09;;;;;;;;;;;23.00;56.80;;;;;;5052306;28;19920;-64
2022/06/06 03:43:52;;;;;;;;;;;23.00;55.90;;;;;;5053986;28;19909;-65
2022/06/06 03:46:27;;;;;;;;;;;23.10;54.30;;;;;;5053805;28;19924;-64
2022/06/06 03:48:55;;;;;;;;;;;23.20;54.40;;;;;;5053529;28;19943;-64
2022/06/06 03:51:27;;;;;;;;;;;23.10;53.90;;;;;;5053482;28;20345;-64
2022/06/06 03:54:16;;;;;;;;;;;23.10;54.00;;;;;;5056388;28;19909;-65
2022/06/06 03:56:56;;;;;;;;;;;23.20;54.20;;;;;;5054467;28;19909;-64
2022/06/06 03:59:22;;;;;;;;;;;23.20;53.10;;;;;;5056517;28;19917;-64
2022/06/06 04:01:48;;;;;;;;;;;23.20;53.10;;;;;;5058185;28;19909;-65
2022/06/06 04:04:15;;;;;;;;;;;23.10;54.70;;;;;;5057814;28;19913;-64
2022/06/06 04:06:40;;;;;;;;;;;23.10;55.40;;;;;;5057768;28;20000;-65
2022/06/06 04:09:06;;;;;;;;;;;23.10;55.20;;;;;;5057434;28;19979;-64
2022/06/06 04:11:52;;;;;;;;;;;23.00;55.90;;;;;;5057428;28;20368;-63
2022/06/06 04:14:17;;;;;;;;;;;23.10;53.90;;;;;;5057068;28;20280;-65
2022/06/06 04:16:42;;;;;;;;;;;23.20;53.60;;;;;;5057240;28;20011;-63
2022/06/06 04:19:27;;;;;;;;;;;23.20;53.50;;;;;;5057402;28;19909;-63
2022/06/06 04:21:52;;;;;;;;;;;23.20;53.40;;;;;;5057263;28;19909;-63
2022/06/06 04:24:27;;;;;;;;;;;23.20;53.40;;;;;;5057476;28;19909;-64
2022/06/06 04:26:52;;;;;;;;;;;23.10;53.80;;;;;;5057046;28;20295;-63
2022/06/06 04:29:24;;;;;;;;;;;23.10;54.50;;;;;;5057509;28;20003;-63
2022/06/06 04:31:55;;;;;;;;;;;23.00;54.90;;;;;;5057069;28;19909;-65
2022/06/06 04:34:26;;;;;;;;;;;23.00;55.30;;;;;;5057017;28;19952;-63
2022/06/06 04:36:52;;;;;;;;;;;23.00;55.70;;;;;;5056983;28;19917;-64
2022/06/06 04:39:33;;;;;;;;;;;23.00;55.30;;;;;;5057119;28;20375;-64
2022/06/06 04:42:03;;;;;;;;;;;23.10;55.50;;;;;;5055430;28;19956;-64
2022/06/06 04:44:34;;;;;;;;;;;23.10;54.80;;;;;;5056796;28;19916;-63
2022/06/06 04:47:04;;;;;;;;;;;23.10;54.70;;;;;;5056712;28;19917;-63
2022/06/06 04:49:31;;;;;;;;;;;23.10;54.40;;;;;;5056794;28;20361;-63
2022/06/06 04:51:58;;;;;;;;;;;23.10;54.40;;;;;;5056706;28;19954;-64
2022/06/06 04:54:24;;;;;;;;;;;23.10;54.30;;;;;;5056959;28;19951;-64
2022/06/06 04:56:51;;;;;;;;;;;23.10;54.40;;;;;;5056705;28;19909;-66
2022/06/06 04:59:18;;;;;;;;;;;23.10;54.10;;;;;;5056635;28;19916;-63
2022/06/06 05:01:44;;;;;;;;;;;23.30;54.30;;;;;;5056539;28;19909;-63
2022/06/06 05:04:09;;;;;;;;;;;23.20;54.00;;;;;;5056169;28;19909;-64
2022/06/06 05:06:38;;;;;;;;;;;23.30;54.00;;;;;;5056751;28;19917;-64
2022/06/06 05:09:06;;;;;;;;;;;23.30;53.80;;;;;;5056357;28;19915;-63
2022/06/06 05:11:44;;;;;;;;;;;23.30;55.10;;;;;;5055059;28;19966;-64
2022/06/06 05:14:28;;;;;;;;;;;23.30;55.70;;;;;;5056336;28;19909;-64
2022/06/06 05:16:53;;;;;;;;;;;23.30;55.00;;;;;;5056356;28;19920;-65
2022/06/06 05:19:29;;;;;;;;;;;23.30;54.40;;;;;;5056179;28;19909;-65
2022/06/06 05:22:06;;;;;;;;;;;23.40;55.00;;;;;;5056032;28;19913;-65
2022/06/06 05:24:35;;;;;;;;;;;23.40;54.50;;;;;;5056261;28;20058;-65
2022/06/06 05:27:00;;;;;;;;;;;23.50;54.70;;;;;;5055812;28;20412;-66
2022/06/06 05:29:32;;;;;;;;;;;23.60;54.20;;;;;;5056168;28;19916;-65
2022/06/06 05:32:30;;;;;;;;;;;23.60;54.40;;;;;;5056205;28;19909;-65
2022/06/06 05:35:03;;;;;;;;;;;23.60;54.20;;;;;;5054754;28;19952;-65
2022/06/06 05:37:32;;;;;;;;;;;24.00;53.90;;;;;;5055897;28;19944;-65
2022/06/06 05:40:00;;;;;;;;;;;24.50;53.20;;;;;;5055744;28;20055;-64
2022/06/06 05:42:32;;;;;;;;;;;25.00;53.10;;;;;;5055507;28;19920;-63
2022/06/06 05:45:09;;;;;;;;;;;25.60;51.00;;;;;;5055474;28;20007;-65
2022/06/06 05:47:43;;;;;;;;;;;26.20;49.50;;;;;;5055637;28;19920;-64
2022/06/06 05:50:09;;;;;;;;;;;26.70;48.90;;;;;;5055621;28;19909;-67
2022/06/06 05:52:37;;;;;;;;;;;27.00;47.80;;;;;;5067912;28;19912;-68
2022/06/06 05:55:09;;;;;;;;;;;27.30;47.40;;;;;;5075253;28;19908;-65
2022/06/06 05:57:40;;;;;;;;;;;27.50;46.70;;;;;;5075374;28;19990;-66
2022/06/06 06:00:26;;;;;;;;;;;27.80;46.80;;;;;;5074881;28;19938;-70
2022/06/06 06:03:00;;;;;;;;;;;28.20;46.20;;;;;;5053330;28;19958;-71
2022/06/06 06:05:45;;;;;;;;;;;28.30;45.20;;;;;;5072230;28;20423;-70
2022/06/06 06:08:32;;;;;;;;;;;28.40;44.90;;;;;;5073163;28;20284;-68
2022/06/06 06:11:05;;;;;;;;;;;28.50;44.70;;;;;;5075249;28;19909;-64
2022/06/06 06:13:49;;;;;;;;;;;28.50;44.50;;;;;;5075070;28;19916;-66
2022/06/06 06:16:17;;;;;;;;;;;28.40;44.50;;;;;;5073809;28;20431;-65
2022/06/06 06:18:43;;;;;;;;;;;28.60;44.50;;;;;;5075227;28;19935;-66
2022/06/06 06:21:11;;;;;;;;;;;28.60;44.30;;;;;;5074753;28;20365;-65
2022/06/06 06:23:39;;;;;;;;;;;28.40;44.50;;;;;;5075025;28;19909;-67
2022/06/06 06:26:05;;;;;;;;;;;28.60;44.90;;;;;;5074478;28;19978;-65
2022/06/06 06:28:35;;;;;;;;;;;28.50;45.10;;;;;;5074274;28;20280;-67
2022/06/06 06:31:17;;;;;;;;;;;28.50;45.40;;;;;;5074152;28;19948;-68
2022/06/06 06:33:42;;;;;;;;;;;28.60;44.90;;;;;;5074390;28;19912;-68
2022/06/06 06:36:27;;;;;;;;;;;28.60;45.00;;;;;;5074130;28;20341;-67
2022/06/06 06:39:11;;;;;;;;;;;28.90;44.60;;;;;;5074185;28;19966;-67
2022/06/06 06:42:00;;;;;;;;;;;29.00;44.10;;;;;;5072936;28;19920;-67
2022/06/06 06:44:29;;;;;;;;;;;29.10;44.00;;;;;;5068738;28;19908;-67
2022/06/06 06:46:57;;;;;;;;;;;29.30;43.60;;;;;;5074512;28;19954;-67
2022/06/06 06:49:23;;;;;;;;;;;29.30;43.10;;;;;;5074174;28;20345;-65
2022/06/06 06:51:54;;;;;;;;;;;29.30;42.50;;;;;;5073792;28;19961;-68
2022/06/06 06:54:26;;;;;;;;;;;29.20;42.90;;;;;;5074562;28;20374;-73
2022/06/06 06:57:10;;;;;;;;;;;29.20;42.30;;;;;;5074289;28;20098;-73
2022/06/06 06:59:35;;;;;;;;;;;29.00;42.50;;;;;;5074170;28;19908;-68
2022/06/06 07:08:32;;;;;;;;;;;29.40;42.60;;;;;;5073938;28;19920;-70
2022/06/06 07:11:00;;;;;;;;;;;29.50;42.20;;;;;;5074097;28;19916;-69
2022/06/06 07:13:34;;;;;;;;;;;29.50;41.80;;;;;;5072717;28;19909;-69
2022/06/06 07:16:13;;;;;;;;;;;29.60;42.30;;;;;;5074030;28;19908;-69
2022/06/06 07:18:39;;;;;;;;;;;29.70;42.20;;;;;;5073979;28;19909;-71
2022/06/06 07:21:06;;;;;;;;;;;29.80;42.20;;;;;;5073710;28;19909;-70
2022/06/06 07:23:33;;;;;;;;;;;29.60;42.20;;;;;;5073932;28;20384;-70
2022/06/06 07:25:59;;;;;;;;;;;29.70;42.50;;;;;;5073646;28;19916;-70
2022/06/06 07:28:24;;;;;;;;;;;29.70;42.40;;;;;;5073589;28;19908;-70
2022/06/06 07:31:09;;;;;;;;;;;29.60;41.90;;;;;;5074127;28;19915;-70
2022/06/06 07:34:02;;;;;;;;;;;29.40;42.20;;;;;;5074398;28;20272;-70
2022/06/06 07:36:49;;;;;;;;;;;29.50;42.30;;;;;;5074057;28;19952;-73
2022/06/06 07:39:24;;;;;;;;;;;29.30;41.90;;;;;;5074134;28;19916;-68
2022/06/06 07:42:10;;;;;;;;;;;29.30;42.40;;;;;;5075067;28;20020;-67
2022/06/06 07:44:54;;;;;;;;;;;29.30;42.20;;;;;;5032296;28;19916;-63
2022/06/06 07:47:38;;;;;;;;;;;29.40;42.20;;;;;;5031758;28;19952;-63
2022/06/06 07:50:06;;;;;;;;;;;29.30;41.80;;;;;;5031651;28;19956;-66
2022/06/06 07:52:44;;;;;;;;;;;29.40;42.30;;;;;;5031438;28;19910;-63
2022/06/06 07:55:19;;;;;;;;;;;29.50;42.00;;;;;;5031511;28;19948;-63
2022/06/06 07:58:03;;;;;;;;;;;29.60;41.80;;;;;;5031904;28;19909;-64
2022/06/06 08:00:28;;;;;;;;;;;29.50;41.40;;;;;;5031241;28;19936;-66
2022/06/06 08:03:02;;;;;;;;;;;29.40;41.70;;;;;;5031741;28;20334;-68
2022/06/06 08:05:46;;;;;;;;;;;29.40;42.50;;;;;;5031387;28;19917;-67
2022/06/06 08:08:17;;;;;;;;;;;29.50;42.30;;;;;;5031693;28;20361;-72
2022/06/06 08:10:44;;;;;;;;;;;29.60;42.40;;;;;;5031498;28;20015;-72
2022/06/06 08:13:12;;;;;;;;;;;29.60;42.50;;;;;;5031223;28;19909;-69
2022/06/06 08:15:50;;;;;;;;;;;29.60;42.60;;;;;;5031258;28;20016;-71
2022/06/06 08:18:19;;;;;;;;;;;29.60;42.50;;;;;;5031804;28;20014;-73
2022/06/06 08:20:52;;;;;;;;;;;29.60;41.80;;;;;;5035787;28;20003;-75
2022/06/06 08:23:19;;;;;;;;;;;29.50;41.90;;;;;;5073186;28;19959;-74
2022/06/06 08:25:46;;;;;;;;;;;29.60;42.40;;;;;;5072474;28;20253;-72
2022/06/06 08:28:12;;;;;;;;;;;29.70;42.30;;;;;;5072046;28;20399;-73
2022/06/06 08:30:39;;;;;;;;;;;29.60;42.10;;;;;;5073151;28;19930;-74
2022/06/06 08:33:04;;;;;;;;;;;29.70;41.90;;;;;;5073008;28;19909;-74
2022/06/06 08:35:35;;;;;;;;;;;29.50;41.50;;;;;;5072091;28;20253;-72
2022/06/06 08:38:10;;;;;;;;;;;29.50;41.60;;;;;;5072983;28;19936;-74
2022/06/06 08:40:38;;;;;;;;;;;29.40;41.40;;;;;;5076251;28;20359;-71
2022/06/06 08:43:07;;;;;;;;;;;29.60;41.20;;;;;;5076312;28;20003;-71
2022/06/06 08:45:38;;;;;;;;;;;29.60;41.30;;;;;;5076484;28;20003;-73
2022/06/06 08:48:22;;;;;;;;;;;29.60;40.30;;;;;;5076528;28;19915;-71
2022/06/06 08:51:13;;;;;;;;;;;29.50;40.90;;;;;;5076760;28;19917;-72
2022/06/06 08:53:54;;;;;;;;;;;29.60;41.70;;;;;;5075071;28;19962;-73
2022/06/06 08:56:34;;;;;;;;;;;29.40;40.90;;;;;;5076467;28;20347;-72
2022/06/06 08:59:09;;;;;;;;;;;29.50;41.30;;;;;;5076268;28;19908;-68
2022/06/06 09:01:53;;;;;;;;;;;29.70;41.10;;;;;;5076007;28;19909;-71
2022/06/06 09:04:19;;;;;;;;;;;29.80;41.00;;;;;;5075983;28;19908;-72
2022/06/06 09:07:03;;;;;;;;;;;29.80;40.80;;;;;;5074419;28;19924;-72
2022/06/06 09:09:47;;;;;;;;;;;29.80;40.00;;;;;;5074183;28;19934;-74
2022/06/06 09:12:34;;;;;;;;;;;29.50;38.90;;;;;;5074632;28;19909;-74
2022/06/06 09:15:00;;;;;;;;;;;29.40;38.80;;;;;;5075701;28;20430;-73
2022/06/06 09:17:41;;;;;;;;;;;29.30;40.20;;;;;;5076048;28;19943;-73
2022/06/06 09:20:13;;;;;;;;;;;29.40;39.40;;;;;;5076129;28;20490;-72
2022/06/06 09:22:44;;;;;;;;;;;29.50;39.30;;;;;;5075998;28;19951;-71
2022/06/06 09:25:23;;;;;;;;;;;29.40;38.80;;;;;;5075768;28;19909;-71
2022/06/06 09:27:48;;;;;;;;;;;29.40;38.70;;;;;;5075570;28;19924;-66
2022/06/06 09:30:20;;;;;;;;;;;29.50;39.60;;;;;;5075320;28;19908;-70
2022/06/06 09:32:52;;;;;;;;;;;29.50;40.70;;;;;;5073915;28;19915;-67
2022/06/06 09:35:36;;;;;;;;;;;29.50;41.00;;;;;;5075255;28;19914;-69
2022/06/06 09:38:04;;;;;;;;;;;29.50;40.50;;;;;;5074663;28;19917;-70
2022/06/06 09:40:35;;;;;;;;;;;29.50;40.10;;;;;;5074916;28;19932;-68
2022/06/06 09:43:27;;;;;;;;;;;29.60;40.30;;;;;;5074838;28;19908;-72
2022/06/06 09:46:22;;;;;;;;;;;29.60;40.40;;;;;;5055676;28;20009;-71
2022/06/06 09:49:07;;;;;;;;;;;29.30;39.60;;;;;;5073067;28;20053;-72
2022/06/06 09:51:51;;;;;;;;;;;29.20;40.00;;;;;;5074519;28;19916;-71
2022/06/06 10:00:12;;;;;;;;;;;29.20;39.70;;;;;;5073212;28;20394;-72
2022/06/06 10:02:54;;;;;;;;;;;29.30;40.10;;;;;;5075317;28;19991;-75
2022/06/06 10:05:35;;;;;;;;;;;29.50;39.50;;;;;;5107957;28;19923;-70
2022/06/06 10:08:19;;;;;;;;;;;29.50;39.00;;;;;;5075156;28;19913;-68
2022/06/06 10:10:45;;;;;;;;;;;29.20;38.00;;;;;;5075173;28;19908;-71
2022/06/06 10:13:10;;;;;;;;;;;29.20;39.70;;;;;;5073776;28;20253;-70
2022/06/06 10:15:36;;;;;;;;;;;29.20;39.30;;;;;;5075056;28;19913;-75
2022/06/06 10:18:08;;;;;;;;;;;29.20;39.00;;;;;;5075050;28;20294;-71
2022/06/06 10:20:33;;;;;;;;;;;29.40;37.80;;;;;;5075152;28;20318;-74
2022/06/06 10:23:12;;;;;;;;;;;29.50;37.80;;;;;;5074922;28;19904;-76
2022/06/06 10:25:44;;;;;;;;;;;29.50;38.00;;;;;;5074647;28;19913;-75
2022/06/06 10:28:19;;;;;;;;;;;29.40;36.30;;;;;;5074541;28;19913;-71
2022/06/06 10:30:49;;;;;;;;;;;29.60;38.40;;;;;;5072111;28;19908;-72
2022/06/06 10:33:27;;;;;;;;;;;29.60;37.80;;;;;;5074517;28;19912;-75
2022/06/06 10:35:55;;;;;;;;;;;29.60;36.60;;;;;;5074861;28;19912;-77
2022/06/06 10:38:39;;;;;;;;;;;29.50;38.20;;;;;;5073321;28;19909;-71
2022/06/06 10:41:23;;;;;;;;;;;29.70;38.40;;;;;;5072084;28;19921;-73
2022/06/06 10:43:58;;;;;;;;;;;29.60;37.90;;;;;;5072549;28;19913;-72
2022/06/06 10:46:35;;;;;;;;;;;29.50;36.00;;;;;;5073903;28;20069;-73
2022/06/06 10:49:06;;;;;;;;;;;29.40;37.00;;;;;;5072554;28;20361;-72
2022/06/06 10:51:52;;;;;;;;;;;29.40;36.50;;;;;;5072911;28;20447;-69
2022/06/06 10:54:21;;;;;;;;;;;29.50;36.00;;;;;;5072311;28;19940;-75
2022/06/06 10:56:46;;;;;;;;;;;29.50;35.60;;;;;;5073759;28;19999;-75
2022/06/06 10:59:12;;;;;;;;;;;29.60;36.60;;;;;;5059903;28;19912;-74
2022/06/06 11:01:56;;;;;;;;;;;29.70;36.70;;;;;;5072142;28;19996;-73
2022/06/06 11:04:31;;;;;;;;;;;29.90;36.10;;;;;;5075755;28;20042;-68
2022/06/06 11:07:11;;;;;;;;;;;30.00;35.20;;;;;;5081105;28;19939;-74
2022/06/06 11:09:49;;;;;;;;;;;30.10;34.40;;;;;;5076773;28;20261;-70
2022/06/06 11:12:23;;;;;;;;;;;30.10;34.50;;;;;;5077169;28;19916;-66
2022/06/06 11:14:49;;;;;;;;;;;30.20;34.00;;;;;;5079028;28;19913;-70
2022/06/06 11:17:33;;;;;;;;;;;30.20;34.60;;;;;;5078506;28;20591;-65
2022/06/06 11:20:07;;;;;;;;;;;30.20;34.00;;;;;;5069432;28;20356;-67
2022/06/06 11:22:33;;;;;;;;;;;30.30;34.20;;;;;;5073324;28;19940;-72
2022/06/06 11:25:06;;;;;;;;;;;30.40;35.30;;;;;;5067275;28;20421;-76
2022/06/06 11:27:40;;;;;;;;;;;30.60;34.30;;;;;;5065941;28;20164;-68
2022/06/06 11:30:27;;;;;;;;;;;30.70;33.60;;;;;;5065122;28;19959;-69
2022/06/06 11:32:55;;;;;;;;;;;30.50;34.00;;;;;;5059243;28;19917;-70
2022/06/06 11:35:41;;;;;;;;;;;30.40;34.60;;;;;;5068185;28;19944;-72
2022/06/06 11:38:29;;;;;;;;;;;30.50;34.70;;;;;;5074060;28;19915;-71
2022/06/06 11:41:15;;;;;;;;;;;30.60;33.40;;;;;;5059643;28;19917;-71
2022/06/06 11:44:02;;;;;;;;;;;30.70;32.20;;;;;;5072993;28;19917;-71
2022/06/06 11:46:30;;;;;;;;;;;30.80;32.50;;;;;;5077996;28;19920;-72
2022/06/06 11:49:14;;;;;;;;;;;30.90;32.20;;;;;;5084751;28;19943;-71
2022/06/06 11:51:48;;;;;;;;;;;30.80;32.40;;;;;;5087719;28;19908;-71
2022/06/06 11:54:16;;;;;;;;;;;30.40;32.80;;;;;;5087813;28;19909;-70
2022/06/06 11:57:01;;;;;;;;;;;30.60;32.00;;;;;;5088208;28;19916;-68
2022/06/06 11:59:48;;;;;;;;;;;30.30;32.10;;;;;;5080730;28;19913;-69
2022/06/06 12:02:16;;;;;;;;;;;30.40;33.00;;;;;;5072228;28;19912;-68
2022/06/06 12:04:45;;;;;;;;;;;30.20;32.20;;;;;;5071160;28;19916;-69
2022/06/06 12:07:13;;;;;;;;;;;30.30;32.10;;;;;;5073040;28;20019;-70
2022/06/06 12:09:45;;;;;;;;;;;30.10;32.40;;;;;;5070506;28;19909;-69
2022/06/06 12:12:11;;;;;;;;;;;30.30;33.00;;;;;;5072634;28;19948;-70
2022/06/06 12:14:53;;;;;;;;;;;30.50;32.60;;;;;;5071641;28;19915;-71
2022/06/06 12:17:35;;;;;;;;;;;30.60;31.90;;;;;;5075768;28;19951;-71
2022/06/06 12:20:04;;;;;;;;;;;30.80;31.50;;;;;;5074110;28;20338;-68
2022/06/06 12:22:48;;;;;;;;;;;31.00;31.60;;;;;;5076247;28;19908;-69
2022/06/06 12:25:43;;;;;;;;;;;30.90;29.90;;;;;;5076344;28;19908;-70
2022/06/06 12:28:14;;;;;;;;;;;30.80;31.30;;;;;;5053846;28;19962;-69
2022/06/06 12:30:58;;;;;;;;;;;31.00;31.70;;;;;;5076119;28;19909;-68
2022/06/06 12:33:35;;;;;;;;;;;31.00;31.50;;;;;;5076301;28;19909;-69
2022/06/06 12:36:21;;;;;;;;;;;31.20;31.60;;;;;;5076173;28;19919;-70
2022/06/06 12:38:59;;;;;;;;;;;31.30;32.00;;;;;;5065262;28;19951;-68
2022/06/06 12:41:34;;;;;;;;;;;31.10;31.90;;;;;;5073677;28;19960;-68
2022/06/06 12:44:04;;;;;;;;;;;30.80;31.60;;;;;;5079682;28;19921;-69
2022/06/06 12:46:48;;;;;;;;;;;30.80;31.90;;;;;;5075788;28;19920;-71
2022/06/06 12:49:22;;;;;;;;;;;31.00;32.10;;;;;;5069855;28;19908;-69
2022/06/06 12:52:03;;;;;;;;;;;31.20;31.80;;;;;;5071227;28;19914;-71
2022/06/06 12:57:37;;;;;;;;;;;31.20;30.80;;;;;;5075079;28;20364;-70
2022/06/06 13:00:07;;;;;;;;;;;31.20;30.80;;;;;;5075679;28;19912;-67
2022/06/06 13:02:44;;;;;;;;;;;31.20;30.70;;;;;;5075914;28;20291;-69
2022/06/06 13:05:23;;;;;;;;;;;31.30;30.80;;;;;;5074768;28;20482;-69
2022/06/06 13:07:58;;;;;;;;;;;31.10;31.60;;;;;;5075907;28;19916;-70
2022/06/06 13:10:46;;;;;;;;;;;31.10;31.70;;;;;;5076084;28;19912;-69
2022/06/06 13:13:18;;;;;;;;;;;31.10;30.90;;;;;;5075687;28;19916;-69
2022/06/06 13:16:02;;;;;;;;;;;31.30;31.40;;;;;;5075789;28;20361;-70
2022/06/06 13:18:30;;;;;;;;;;;31.30;32.30;;;;;;5073556;28;19908;-70
2022/06/06 13:21:01;;;;;;;;;;;31.50;32.40;;;;;;5075859;28;19915;-73
2022/06/06 13:23:33;;;;;;;;;;;31.50;31.40;;;;;;5076416;28;19909;-71
2022/06/06 13:26:16;;;;;;;;;;;31.40;30.80;;;;;;5075433;28;19927;-70
2022/06/06 13:28:52;;;;;;;;;;;31.20;31.60;;;;;;5076061;28;19995;-71
2022/06/06 13:31:29;;;;;;;;;;;31.20;31.90;;;;;;5075620;28;19943;-70
2022/06/06 13:34:04;;;;;;;;;;;31.30;32.30;;;;;;5076139;28;19916;-68
2022/06/06 13:36:38;;;;;;;;;;;31.40;32.00;;;;;;5076044;28;19908;-69
2022/06/06 13:39:05;;;;;;;;;;;31.20;31.20;;;;;;5074332;28;20360;-69
2022/06/06 13:41:43;;;;;;;;;;;31.10;31.50;;;;;;5074547;28;19920;-70
2022/06/06 13:44:29;;;;;;;;;;;31.00;31.00;;;;;;5075876;28;20360;-68
2022/06/06 13:47:07;;;;;;;;;;;31.00;30.90;;;;;;5075881;28;19923;-71
2022/06/06 13:49:42;;;;;;;;;;;31.00;32.20;;;;;;5075964;28;20341;-69
2022/06/06 13:52:26;;;;;;;;;;;31.10;31.40;;;;;;5075535;28;19995;-69
2022/06/06 13:54:52;;;;;;;;;;;31.20;31.50;;;;;;5075635;28;19912;-69
2022/06/06 13:57:18;;;;;;;;;;;31.30;30.80;;;;;;5075613;28;19908;-68
2022/06/06 13:59:43;;;;;;;;;;;31.20;31.20;;;;;;5075885;28;19909;-68
2022/06/06 14:02:24;;;;;;;;;;;31.20;31.10;;;;;;5075455;28;20269;-69
2022/06/06 14:05:09;;;;;;;;;;;31.20;30.90;;;;;;5075340;28;19916;-70
2022/06/06 14:07:34;;;;;;;;;;;30.90;31.70;;;;;;5075305;28;20330;-70
2022/06/06 14:10:10;;;;;;;;;;;31.00;31.00;;;;;;5075348;28;19909;-70
2022/06/06 14:12:44;;;;;;;;;;;31.00;30.50;;;;;;5075438;28;20359;-70
2022/06/06 14:15:14;;;;;;;;;;;30.90;31.00;;;;;;5075313;28;20369;-71
2022/06/06 14:17:41;;;;;;;;;;;31.10;30.90;;;;;;5074051;28;20280;-70
2022/06/06 14:20:12;;;;;;;;;;;31.30;31.30;;;;;;5075055;28;20383;-72
2022/06/06 14:22:39;;;;;;;;;;;31.40;30.10;;;;;;5075248;28;19916;-71
2022/06/06 14:25:06;;;;;;;;;;;31.00;31.50;;;;;;5075077;28;19916;-72
2022/06/06 14:27:33;;;;;;;;;;;31.00;30.90;;;;;;5075004;28;20376;-70
2022/06/06 14:30:21;;;;;;;;;;;30.70;31.10;;;;;;5074869;28;19909;-72
2022/06/06 14:32:49;;;;;;;;;;;30.60;31.50;;;;;;5074724;28;19948;-70
2022/06/06 14:35:15;;;;;;;;;;;31.00;32.10;;;;;;5074915;28;20327;-70
2022/06/06 14:37:41;;;;;;;;;;;31.20;31.40;;;;;;5074054;28;19916;-71
2022/06/06 14:40:09;;;;;;;;;;;31.50;31.20;;;;;;5075052;28;19962;-71
2022/06/06 14:42:37;;;;;;;;;;;31.50;30.80;;;;;;5074525;28;19947;-70
2022/06/06 14:45:08;;;;;;;;;;;31.40;30.00;;;;;;5073323;28;19912;-70
2022/06/06 14:47:36;;;;;;;;;;;31.40;30.30;;;;;;5074316;28;19923;-70
2022/06/06 14:52:57;;;;;;;;;;;31.50;30.40;;;;;;5074830;28;19972;-70
2022/06/06 14:55:23;;;;;;;;;;;31.60;30.50;;;;;;5074168;28;19919;-73
2022/06/06 14:57:49;;;;;;;;;;;31.70;30.10;;;;;;5074229;28;19908;-71
2022/06/06 15:00:29;;;;;;;;;;;31.70;29.70;;;;;;5074232;28;19908;-71
2022/06/06 15:03:05;;;;;;;;;;;31.50;30.20;;;;;;5074204;28;19950;-68
2022/06/06 15:05:31;;;;;;;;;;;31.30;30.70;;;;;;5074095;28;20375;-70
2022/06/06 15:08:16;;;;;;;;;;;31.10;31.00;;;;;;5074262;28;20327;-70
2022/06/06 15:10:41;;;;;;;;;;;31.10;30.60;;;;;;5074217;28;19909;-69
2022/06/06 15:13:08;;;;;;;;;;;31.20;31.00;;;;;;5072676;28;20311;-68
2022/06/06 15:15:33;;;;;;;;;;;31.20;30.80;;;;;;5071926;28;20314;-69